Time;durP1;ratioP1;P1;durP2;ratioP2;P2;SDS_P1;SDS_P2;PMS_P1;PMS_P2;Temp;Humidity;BMP_temperature;BMP_pressure;BME280_temperature;BME280_humidity;BME280_pressure;Samples;Min_cycle;Max_cycle;Signal;HPM_P1;HPM_P2
2022/01/18 00:00:55;;;;;;;16.60;15.80;;;7.40;84.10;;;;;;4989800;28;20035;-81
2022/01/18 00:03:21;;;;;;;16.23;15.53;;;7.40;84.10;;;;;;4990174;28;20038;-81
2022/01/18 00:05:49;;;;;;;17.97;17.07;;;7.40;84.00;;;;;;4994206;28;20030;-81
2022/01/18 00:08:17;;;;;;;17.10;16.30;;;7.40;84.10;;;;;;4991984;28;20041;-81
2022/01/18 00:10:44;;;;;;;18.13;17.20;;;7.40;84.10;;;;;;4991009;28;20042;-81
2022/01/18 00:13:35;;;;;;;17.53;16.53;;;7.40;84.00;;;;;;4989234;28;20042;-81
2022/01/18 00:18:34;;;;;;;19.23;17.97;;;7.40;84.00;;;;;;4992508;28;20392;-81
2022/01/18 00:23:33;;;;;;;17.43;16.63;;;7.40;84.10;;;;;;4994243;28;20062;-81
2022/01/18 00:25:59;;;;;;;17.27;16.47;;;7.30;84.00;;;;;;4976525;28;20038;-81
2022/01/18 00:28:27;;;;;;;16.97;16.10;;;7.30;84.10;;;;;;4990121;28;20057;-81
2022/01/18 00:36:02;;;;;;;17.20;16.40;;;7.40;84.20;;;;;;4983131;28;20037;-81
2022/01/18 00:38:46;;;;;;;20.33;19.33;;;7.40;84.10;;;;;;4988368;28;20456;-81
2022/01/18 00:41:12;;;;;;;16.63;15.83;;;7.40;84.10;;;;;;4993755;28;20491;-81
2022/01/18 00:43:38;;;;;;;17.63;16.80;;;7.40;84.00;;;;;;4990120;28;20033;-81
2022/01/18 00:46:05;;;;;;;19.10;17.57;;;7.40;84.00;;;;;;4983952;28;20058;-81
2022/01/18 00:48:34;;;;;;;17.73;16.83;;;7.40;84.00;;;;;;4963814;28;20042;-81
2022/01/18 00:51:00;;;;;;;18.17;17.27;;;7.40;83.90;;;;;;4989649;28;20043;-81
2022/01/18 00:53:30;;;;;;;18.77;17.77;;;7.40;83.90;;;;;;4992250;28;20034;-81
2022/01/18 00:58:42;;;;;;;17.17;16.37;;;7.50;83.90;;;;;;4994831;28;20037;-81
2022/01/18 01:01:09;;;;;;;17.43;16.63;;;7.50;83.90;;;;;;4989089;28;20049;-80
2022/01/18 01:03:35;;;;;;;17.60;16.80;;;7.50;83.90;;;;;;4989417;28;20026;-81
2022/01/18 01:06:02;;;;;;;16.90;16.10;;;7.40;83.80;;;;;;4978342;28;20030;-81
2022/01/18 01:08:28;;;;;;;16.70;15.90;;;7.40;83.80;;;;;;4989737;28;20399;-81
2022/01/18 01:10:54;;;;;;;18.37;17.43;;;7.50;83.90;;;;;;4980580;28;20469;-81
2022/01/18 01:13:21;;;;;;;17.63;16.73;;;7.50;83.90;;;;;;4987462;28;20042;-81
2022/01/18 01:19:02;;;;;;;16.60;15.80;;;7.50;83.90;;;;;;4991780;28;20491;-81
2022/01/18 01:35:13;;;;;;;17.40;16.60;;;7.40;83.80;;;;;;4980696;28;20523;-81
2022/01/18 01:43:28;;;;;;;18.03;17.13;;;7.30;83.80;;;;;;4984550;28;20408;-81
2022/01/18 01:45:54;;;;;;;18.07;17.27;;;7.30;83.90;;;;;;4966271;28;20045;-81
2022/01/18 01:48:22;;;;;;;17.30;16.50;;;7.20;83.90;;;;;;4969581;28;20053;-81
2022/01/18 01:50:55;;;;;;;16.40;15.63;;;7.20;83.90;;;;;;4989823;28;20042;-80
2022/01/18 01:53:22;;;;;;;17.87;17.07;;;7.10;83.90;;;;;;4988802;28;20046;-81
2022/01/18 01:55:49;;;;;;;16.03;15.30;;;7.10;84.00;;;;;;4986529;28;20341;-81
2022/01/18 02:21:50;;;;;;;16.77;15.97;;;6.60;84.30;;;;;;4991699;28;20040;-80
2022/01/18 02:24:18;;;;;;;16.60;15.80;;;6.60;84.40;;;;;;4986454;28;20050;-81
2022/01/18 02:26:44;;;;;;;16.00;15.23;;;6.60;84.40;;;;;;4976908;28;20027;-80
2022/01/18 02:29:11;;;;;;;16.10;15.37;;;6.60;84.40;;;;;;4989467;28;20364;-80
2022/01/18 02:31:37;;;;;;;15.70;14.93;;;6.60;84.50;;;;;;4985956;28;20403;-80
2022/01/18 02:34:05;;;;;;;16.27;15.40;;;6.60;84.50;;;;;;4987189;28;20031;-80
2022/01/18 02:36:31;;;;;;;17.77;16.67;;;6.60;84.50;;;;;;4988000;28;20026;-80
2022/01/18 02:38:57;;;;;;;16.43;15.63;;;6.60;84.50;;;;;;4985667;28;20034;-81
2022/01/18 02:41:28;;;;;;;15.70;15.00;;;6.50;84.40;;;;;;4989315;28;20054;-80
2022/01/18 02:43:57;;;;;;;15.40;14.70;;;6.50;84.40;;;;;;4977074;28;20399;-80
2022/01/18 02:46:23;;;;;;;16.53;15.77;;;6.50;84.40;;;;;;4985153;28;20038;-80
2022/01/18 02:48:49;;;;;;;16.47;15.67;;;6.50;84.50;;;;;;4984460;28;20038;-81
2022/01/18 02:51:15;;;;;;;17.30;16.40;;;6.50;84.50;;;;;;4977047;28;20030;-80
2022/01/18 02:53:56;;;;;;;18.07;17.17;;;6.50;84.50;;;;;;4990948;28;20047;-80
2022/01/18 02:56:23;;;;;;;;;;;6.50;84.60;;;;;;4976905;28;20030;-80
2022/01/18 02:58:50;;;;;;;15.73;15.03;;;6.50;84.60;;;;;;4985348;28;20255;-80
2022/01/18 03:04:00;;;;;;;17.80;16.90;;;6.50;84.50;;;;;;4979700;28;20042;-80
2022/01/18 03:06:26;;;;;;;16.77;15.67;;;6.50;84.50;;;;;;4979319;28;20043;-80
2022/01/18 03:08:52;;;;;;;16.67;15.83;;;6.50;84.50;;;;;;4977993;28;20058;-80
2022/01/18 03:11:18;;;;;;;15.73;15.03;;;6.50;84.50;;;;;;4988716;28;20038;-80
2022/01/18 03:13:44;;;;;;;17.17;16.20;;;6.50;84.50;;;;;;4981513;28;20049;-80
2022/01/18 03:16:10;;;;;;;16.53;15.73;;;6.50;84.50;;;;;;4983602;28;20076;-80
2022/01/18 03:18:36;;;;;;;16.87;16.07;;;6.50;84.60;;;;;;4984832;28;20042;-80
2022/01/18 03:21:03;;;;;;;16.93;16.03;;;6.50;84.60;;;;;;4975104;28;20041;-80
2022/01/18 03:23:29;;;;;;;18.07;17.10;;;6.50;84.60;;;;;;4988617;28;20058;-80
2022/01/18 03:26:01;;;;;;;17.90;16.80;;;6.40;84.60;;;;;;4990030;28;20038;-80
2022/01/18 03:28:27;;;;;;;17.57;16.57;;;6.40;84.50;;;;;;4985939;28;20062;-80
2022/01/18 03:30:54;;;;;;;17.77;16.87;;;6.40;84.60;;;;;;4985330;28;20053;-80
2022/01/18 03:33:22;;;;;;;17.20;16.40;;;6.30;84.50;;;;;;4986679;28;20042;-80
2022/01/18 03:35:49;;;;;;;17.07;16.13;;;6.30;84.50;;;;;;4986342;28;20046;-80
2022/01/18 03:38:15;;;;;;;17.43;16.53;;;6.20;84.40;;;;;;4991285;28;20371;-80
2022/01/18 03:40:42;;;;;;;15.97;15.20;;;6.20;84.50;;;;;;4987582;28;20041;-80
2022/01/18 03:43:11;;;;;;;17.77;16.80;;;6.20;84.60;;;;;;4983981;28;20034;-80
2022/01/18 03:45:43;;;;;;;17.87;16.70;;;6.10;84.50;;;;;;4986046;28;20034;-80
2022/01/18 03:48:17;;;;;;;16.07;15.37;;;6.00;84.40;;;;;;4986814;28;20051;-80
2022/01/18 03:50:43;;;;;;;16.40;15.40;;;6.00;84.60;;;;;;4989836;28;20046;-80
2022/01/18 03:53:11;;;;;;;16.53;15.73;;;6.00;84.70;;;;;;4987249;28;20037;-80
2022/01/18 03:55:37;;;;;;;16.00;15.30;;;5.90;84.70;;;;;;4980382;28;20035;-80
2022/01/18 03:58:03;;;;;;;17.60;16.30;;;5.90;85.50;;;;;;4988642;28;20403;-80
2022/01/18 04:00:29;;;;;;;16.10;15.30;;;5.90;84.80;;;;;;4990380;28;20042;-80
2022/01/18 04:02:55;;;;;;;18.33;17.23;;;5.90;84.90;;;;;;4992055;28;20475;-80
2022/01/18 04:05:22;;;;;;;17.57;16.47;;;5.90;85.00;;;;;;4978976;28;20468;-79
2022/01/18 04:07:48;;;;;;;16.03;15.33;;;5.90;84.90;;;;;;4989832;28;20061;-79
2022/01/18 04:10:14;;;;;;;16.83;16.03;;;5.80;84.80;;;;;;4988529;28;20044;-80
2022/01/18 04:12:40;;;;;;;16.80;15.90;;;5.90;84.90;;;;;;4990570;28;20049;-80
2022/01/18 04:15:08;;;;;;;16.80;15.90;;;5.90;84.80;;;;;;4990028;28;20031;-80
2022/01/18 04:26:03;;;;;;;17.60;16.40;;;5.80;84.60;;;;;;4988228;28;20049;-80
2022/01/18 04:30:57;;;;;;;16.43;15.63;;;5.80;84.70;;;;;;4989067;28;20391;-80
2022/01/18 04:33:23;;;;;;;16.77;15.97;;;5.70;84.70;;;;;;4990077;28;20042;-80
2022/01/18 04:35:49;;;;;;;16.80;15.90;;;5.70;84.70;;;;;;4978062;28;20037;-80
2022/01/18 04:38:15;;;;;;;16.43;15.63;;;5.70;84.80;;;;;;4986657;28;20034;-80
2022/01/18 04:40:44;;;;;;;16.47;15.67;;;5.70;84.80;;;;;;4990298;28;20026;-80
2022/01/18 04:48:27;;;;;;;16.20;15.50;;;5.70;84.70;;;;;;4992902;28;20499;-80
2022/01/18 04:51:11;;;;;;;16.93;16.10;;;5.70;84.70;;;;;;4994211;28;20037;-80
2022/01/18 04:53:40;;;;;;;15.67;14.97;;;5.70;84.70;;;;;;4978483;28;20038;-79
2022/01/18 04:56:10;;;;;;;17.30;16.37;;;5.70;84.70;;;;;;4978810;28;20047;-80
2022/01/18 04:58:37;;;;;;;16.83;16.03;;;5.70;84.70;;;;;;4988431;28;20022;-79
2022/01/18 05:01:04;;;;;;;16.10;15.30;;;5.70;84.70;;;;;;4987691;28;20038;-80
2022/01/18 05:03:30;;;;;;;16.17;15.37;;;5.70;84.70;;;;;;4987550;28;20023;-80
2022/01/18 05:06:00;;;;;;;16.23;15.33;;;5.60;84.60;;;;;;4990507;28;20045;-80
2022/01/18 05:08:26;;;;;;;16.60;15.80;;;5.60;84.70;;;;;;4991456;28;20030;-80
2022/01/18 05:10:55;;;;;;;16.43;15.53;;;5.60;84.60;;;;;;4989901;28;20039;-80
2022/01/18 05:21:26;;;;;;;17.27;15.90;;;5.50;84.70;;;;;;4978387;28;20042;-80
2022/01/18 05:23:52;;;;;;;16.83;15.83;;;5.50;84.70;;;;;;4980032;28;20156;-79
2022/01/18 05:26:19;;;;;;;16.20;15.43;;;5.50;85.50;;;;;;4990449;28;20479;-78
2022/01/18 05:28:45;;;;;;;17.03;16.23;;;5.50;84.70;;;;;;4989277;28;20479;-78
2022/01/18 05:31:11;;;;;;;16.30;15.50;;;5.50;84.70;;;;;;4985043;28;20046;-78
2022/01/18 05:33:39;;;;;;;15.80;15.10;;;5.40;84.70;;;;;;4980670;28;20395;-79
2022/01/18 05:36:06;;;;;;;17.23;15.43;;;5.40;84.70;;;;;;4978052;28;20049;-78
2022/01/18 05:38:33;;;;;;;17.73;16.73;;;5.40;84.70;;;;;;4986397;28;20431;-78
2022/01/18 05:41:03;;;;;;;17.93;16.63;;;5.40;84.80;;;;;;4981655;28;20022;-78
2022/01/18 05:43:29;;;;;;;17.83;16.85;;;5.40;84.80;;;;;;4991273;28;20038;-78
2022/01/18 05:45:55;;;;;;;17.73;16.73;;;5.40;84.80;;;;;;4981625;28;20034;-78
2022/01/18 05:48:23;;;;;;;17.43;16.43;;;5.40;84.80;;;;;;4987018;28;20038;-78
2022/01/18 05:50:49;;;;;;;16.20;15.37;;;5.30;84.80;;;;;;4977747;28;20049;-79
2022/01/18 05:53:15;;;;;;;17.77;16.37;;;5.30;84.70;;;;;;4965068;28;20047;-79
2022/01/18 05:55:41;;;;;;;18.57;17.50;;;5.30;84.80;;;;;;4987149;28;20041;-79
2022/01/18 05:58:07;;;;;;;17.77;16.60;;;5.30;84.90;;;;;;4984335;28;20022;-79
2022/01/18 06:00:34;;;;;;;16.97;16.10;;;5.30;84.90;;;;;;4978639;28;20042;-79
2022/01/18 06:03:02;;;;;;;17.23;16.33;;;5.30;84.90;;;;;;4986066;28;20030;-78
2022/01/18 06:08:13;;;;;;;16.80;15.50;;;5.30;84.80;;;;;;4997657;28;20053;-78
2022/01/18 06:10:40;;;;;;;20.10;18.90;;;5.30;84.80;;;;;;4980526;28;20392;-78
2022/01/18 06:13:07;;;;;;;16.03;15.23;;;5.40;84.80;;;;;;4983477;28;20065;-79
2022/01/18 06:15:34;;;;;;;18.27;17.17;;;5.40;84.80;;;;;;4990171;28;20499;-80
2022/01/18 06:18:00;;;;;;;17.33;16.53;;;5.40;84.80;;;;;;4981149;28;20498;-79
2022/01/18 06:20:26;;;;;;;20.13;18.37;;;5.40;84.60;;;;;;4990131;28;20030;-78
2022/01/18 06:22:52;;;;;;;17.03;16.23;;;5.40;84.60;;;;;;4979987;28;20065;-80
2022/01/18 06:25:21;;;;;;;17.00;16.20;;;5.40;84.60;;;;;;4978036;28;20041;-79
2022/01/18 06:27:47;;;;;;;17.07;16.03;;;5.50;84.60;;;;;;4981119;28;20038;-80
2022/01/18 06:30:14;;;;;;;17.50;16.57;;;5.50;84.50;;;;;;4986452;28;20034;-80
2022/01/18 06:32:43;;;;;;;17.93;16.10;;;5.50;84.50;;;;;;4983569;28;20037;-79
2022/01/18 06:35:10;;;;;;;15.93;15.13;;;5.50;84.50;;;;;;4973371;28;20027;-80
2022/01/18 06:37:36;;;;;;;16.80;16.00;;;5.50;84.50;;;;;;4987949;28;20057;-80
2022/01/18 06:40:04;;;;;;;16.37;15.57;;;5.50;84.40;;;;;;4983515;28;20487;-80
2022/01/18 06:42:30;;;;;;;16.30;15.57;;;5.50;84.40;;;;;;4986393;28;20467;-80
2022/01/18 06:44:56;;;;;;;16.80;15.93;;;5.50;84.50;;;;;;4976665;28;20030;-80
2022/01/18 06:47:23;;;;;;;17.67;16.47;;;5.50;84.30;;;;;;4981295;28;20042;-80
2022/01/18 06:49:49;;;;;;;17.13;16.20;;;5.50;84.40;;;;;;4988270;28;20049;-80
2022/01/18 06:52:15;;;;;;;18.60;17.57;;;5.50;84.40;;;;;;4985224;28;20387;-80
2022/01/18 06:54:41;;;;;;;17.27;16.47;;;5.50;84.50;;;;;;4986525;28;20031;-80
2022/01/18 06:57:07;;;;;;;17.47;16.57;;;5.50;84.50;;;;;;4988475;28;20034;-80
2022/01/18 06:59:36;;;;;;;16.20;15.50;;;5.50;84.50;;;;;;4991261;28;20038;-80
2022/01/18 07:02:02;;;;;;;17.40;16.50;;;5.50;84.50;;;;;;4985816;28;20035;-80
2022/01/18 07:04:29;;;;;;;17.77;16.83;;;5.50;84.40;;;;;;4985275;28;20035;-80
2022/01/18 07:06:55;;;;;;;17.57;16.57;;;5.50;84.50;;;;;;4987380;28;20041;-80
2022/01/18 07:09:23;;;;;;;16.10;15.30;;;5.50;84.40;;;;;;4986771;28;20042;-80
2022/01/18 07:11:53;;;;;;;17.00;16.00;;;5.50;84.40;;;;;;4990250;28;20053;-80
2022/01/18 07:14:19;;;;;;;15.77;15.07;;;5.50;84.40;;;;;;4972664;28;20034;-80
2022/01/18 07:16:45;;;;;;;16.33;15.53;;;5.50;84.40;;;;;;4980272;28;20049;-81
2022/01/18 07:19:11;;;;;;;16.03;15.33;;;5.60;84.50;;;;;;4978722;28;20476;-80
2022/01/18 07:21:38;;;;;;;18.43;16.93;;;5.50;84.40;;;;;;4985936;28;20043;-79
2022/01/18 07:24:06;;;;;;;16.20;15.50;;;5.60;84.40;;;;;;4986310;28;20073;-79
2022/01/18 07:26:33;;;;;;;17.20;16.20;;;5.60;84.40;;;;;;4992938;28;20038;-78
2022/01/18 07:28:59;;;;;;;16.73;15.93;;;5.60;84.40;;;;;;4980227;28;20387;-78
2022/01/18 07:31:25;;;;;;;20.57;18.77;;;5.60;84.40;;;;;;4993037;28;20042;-79
2022/01/18 07:33:51;;;;;;;15.73;15.03;;;5.60;84.40;;;;;;4993753;28;20037;-78
2022/01/18 07:36:17;;;;;;;17.53;16.47;;;5.60;84.40;;;;;;4994932;28;20026;-80
2022/01/18 07:38:43;;;;;;;16.37;15.57;;;5.60;84.40;;;;;;4989688;28;20030;-78
2022/01/18 07:41:09;;;;;;;17.93;16.60;;;5.60;84.40;;;;;;4996167;28;20030;-79
2022/01/18 07:43:38;;;;;;;15.83;15.13;;;5.70;84.50;;;;;;4991852;28;20407;-78
2022/01/18 07:46:04;;;;;;;16.50;15.70;;;5.60;84.40;;;;;;4986485;28;20030;-79
2022/01/18 07:48:30;;;;;;;16.50;15.70;;;5.70;84.50;;;;;;4984606;28;20045;-80
2022/01/18 07:50:58;;;;;;;16.90;16.03;;;5.70;84.40;;;;;;4989807;28;20038;-79
2022/01/18 07:53:25;;;;;;;17.83;16.47;;;5.60;84.40;;;;;;4992187;28;20034;-79
2022/01/18 07:55:51;;;;;;;16.77;15.93;;;5.70;84.40;;;;;;4995935;28;20031;-79
2022/01/18 07:58:17;;;;;;;17.53;16.67;;;5.70;84.40;;;;;;4995207;28;20037;-79
2022/01/18 08:00:44;;;;;;;16.43;15.57;;;5.70;84.40;;;;;;4988855;28;20038;-79
2022/01/18 08:03:10;;;;;;;15.80;15.07;;;5.70;84.40;;;;;;4989282;28;20039;-79
2022/01/18 08:05:37;;;;;;;16.87;15.63;;;5.70;84.40;;;;;;4994594;28;20042;-79
2022/01/18 08:08:05;;;;;;;15.27;14.57;;;5.70;84.40;;;;;;5006548;28;20050;-79
2022/01/18 08:10:31;;;;;;;16.67;15.70;;;5.80;84.50;;;;;;4989641;28;20031;-82
2022/01/18 08:13:01;;;;;;;17.30;16.30;;;5.80;84.40;;;;;;4986444;28;20034;-78
2022/01/18 08:15:29;;;;;;;16.53;15.73;;;5.80;84.40;;;;;;5001782;28;20045;-79
2022/01/18 08:17:55;;;;;;;15.80;15.10;;;5.80;84.40;;;;;;4991729;28;20506;-80
2022/01/18 08:20:21;;;;;;;16.57;15.80;;;5.80;84.30;;;;;;4988813;28;20041;-79
2022/01/18 08:22:47;;;;;;;16.03;15.23;;;5.80;84.30;;;;;;4989357;28;20050;-79
2022/01/18 08:25:15;;;;;;;16.00;15.30;;;5.80;84.30;;;;;;4993441;28;20039;-81
2022/01/18 08:27:41;;;;;;;18.20;17.10;;;5.80;84.20;;;;;;4993404;28;20022;-78
2022/01/18 08:30:09;;;;;;;15.80;15.10;;;5.80;84.30;;;;;;4989642;28;20038;-78
2022/01/18 08:32:36;;;;;;;17.30;16.33;;;5.80;84.40;;;;;;4986902;28;20030;-80
2022/01/18 08:35:02;;;;;;;17.20;16.40;;;5.80;84.30;;;;;;4994753;28;20065;-80
2022/01/18 08:37:28;;;;;;;16.90;16.07;;;5.80;84.30;;;;;;4983920;28;20399;-79
2022/01/18 08:39:55;;;;;;;16.67;15.83;;;5.80;84.40;;;;;;4988735;28;20498;-78
2022/01/18 08:42:21;;;;;;;16.47;15.67;;;5.80;84.40;;;;;;4983945;28;20046;-80
2022/01/18 08:44:47;;;;;;;19.90;19.00;;;5.80;84.40;;;;;;4994690;28;20050;-79
2022/01/18 08:47:13;;;;;;;17.00;15.73;;;5.80;84.30;;;;;;4994273;28;20031;-80
2022/01/18 08:49:40;;;;;;;23.63;22.53;;;5.90;84.40;;;;;;5006487;28;20049;-80
2022/01/18 08:52:06;;;;;;;16.17;15.47;;;5.90;84.40;;;;;;4984940;28;20038;-79
2022/01/18 08:54:34;;;;;;;17.50;16.30;;;5.80;84.40;;;;;;4991411;28;20395;-80
2022/01/18 08:57:01;;;;;;;17.47;16.57;;;5.80;84.40;;;;;;4994021;28;20034;-80
2022/01/18 08:59:28;;;;;;;17.20;16.40;;;5.80;84.50;;;;;;4993271;28;20037;-80
2022/01/18 09:01:54;;;;;;;17.27;16.43;;;5.90;84.50;;;;;;4992953;28;20035;-79
2022/01/18 09:04:20;;;;;;;17.43;16.63;;;5.90;84.50;;;;;;4992079;28;20042;-80
2022/01/18 09:06:49;;;;;;;16.87;16.07;;;5.90;84.40;;;;;;4987688;28;20054;-80
2022/01/18 09:09:17;;;;;;;16.23;15.47;;;5.90;84.40;;;;;;4982965;28;20065;-81
2022/01/18 09:11:45;;;;;;;16.63;15.83;;;5.90;84.30;;;;;;4993724;28;20060;-81
2022/01/18 09:14:12;;;;;;;21.67;20.60;;;5.90;84.30;;;;;;4994199;28;20046;-82
2022/01/18 09:16:38;;;;;;;17.70;16.83;;;5.90;84.30;;;;;;4964446;28;20484;-79
2022/01/18 09:19:04;;;;;;;17.37;16.57;;;5.90;84.30;;;;;;4984652;28;20034;-84
2022/01/18 09:21:32;;;;;;;16.70;15.90;;;6.00;84.60;;;;;;4988552;28;20031;-82
2022/01/18 09:23:59;;;;;;;17.70;16.80;;;6.00;84.30;;;;;;4986935;28;20046;-83
2022/01/18 09:26:25;;;;;;;16.93;16.13;;;6.10;85.00;;;;;;4990120;28;20088;-84
2022/01/18 09:28:52;;;;;;;19.33;18.43;;;6.10;84.20;;;;;;4989213;28;20034;-81
2022/01/18 09:31:19;;;;;;;16.87;16.07;;;6.00;84.10;;;;;;4984504;28;20109;-82
2022/01/18 09:33:45;;;;;;;17.73;16.93;;;6.00;84.10;;;;;;4980615;28;20034;-82
2022/01/18 09:36:11;;;;;;;18.83;17.93;;;6.00;84.10;;;;;;4989445;28;20157;-80
2022/01/18 09:38:38;;;;;;;17.53;16.70;;;6.00;84.10;;;;;;4985465;28;20034;-82
2022/01/18 09:41:10;;;;;;;17.10;16.30;;;6.00;84.10;;;;;;4975947;28;20140;-83
2022/01/18 09:43:38;;;;;;;16.53;15.73;;;6.00;84.10;;;;;;4979720;28;20411;-82
2022/01/18 09:46:04;;;;;;;16.87;16.07;;;6.00;84.20;;;;;;4983709;28;20391;-82
2022/01/18 09:48:31;;;;;;;16.47;15.67;;;6.00;84.10;;;;;;4988517;28;20039;-80
2022/01/18 09:50:58;;;;;;;16.50;15.73;;;6.00;84.10;;;;;;4991113;28;20407;-81
2022/01/18 09:53:25;;;;;;;16.63;15.83;;;6.00;84.00;;;;;;4991278;28;20043;-82
2022/01/18 09:55:53;;;;;;;15.87;15.17;;;6.00;84.00;;;;;;4984535;28;20484;-81
2022/01/18 09:58:20;;;;;;;17.57;16.63;;;6.00;83.90;;;;;;4981776;28;20023;-82
2022/01/18 10:00:46;;;;;;;16.73;15.93;;;6.00;83.90;;;;;;4979871;28;20053;-82
2022/01/18 10:03:31;;;;;;;16.40;15.50;;;6.10;84.00;;;;;;4988509;28;20030;-83
2022/01/18 10:05:57;;;;;;;16.90;16.10;;;6.10;84.00;;;;;;4977314;28;20039;-81
2022/01/18 10:08:23;;;;;;;16.73;15.93;;;6.10;84.00;;;;;;4992254;28;20392;-81
2022/01/18 10:10:57;;;;;;;15.70;14.97;;;6.10;83.80;;;;;;4988492;28;20041;-80
2022/01/18 10:13:27;;;;;;;16.30;15.50;;;6.10;83.70;;;;;;4983390;28;20038;-81
2022/01/18 10:16:13;;;;;;;17.73;16.93;;;6.10;83.80;;;;;;4979956;28;20043;-80
2022/01/18 10:18:55;;;;;;;16.87;16.00;;;6.20;83.80;;;;;;4980627;28;20034;-80
2022/01/18 10:21:33;;;;;;;16.57;15.77;;;6.20;83.80;;;;;;4987446;28;20065;-80
2022/01/18 10:24:22;;;;;;;16.20;15.50;;;6.20;83.70;;;;;;4989076;28;20508;-80
2022/01/18 10:26:50;;;;;;;19.47;18.57;;;6.30;83.60;;;;;;4974011;28;20064;-81
2022/01/18 10:29:17;;;;;;;17.43;16.10;;;6.20;83.40;;;;;;4989613;28;20045;-81
2022/01/18 10:35:04;;;;;;;17.10;16.30;;;6.20;83.40;;;;;;4985726;28;20049;-79
2022/01/18 10:37:15;;;;;;;16.50;15.73;;;6.20;83.50;;;;;;4983652;28;20051;-80
2022/01/18 10:39:55;;;;;;;16.08;15.32;;;6.20;83.40;;;;;;4981840;28;20027;-82
2022/01/18 10:42:35;;;;;;;17.40;16.48;;;6.20;83.50;;;;;;4980965;28;20509;-89
2022/01/18 10:45:14;;;;;;;17.53;16.67;;;6.20;83.50;;;;;;4976884;28;20039;-80
2022/01/18 10:48:02;;;;;;;17.07;16.17;;;6.20;83.50;;;;;;4989368;28;20124;-84
2022/01/18 10:50:34;;;;;;;15.90;15.20;;;6.20;83.50;;;;;;4985905;28;20039;-84
2022/01/18 10:53:16;;;;;;;;;;;6.20;83.40;;;;;;4977357;28;20061;-84
2022/01/18 10:55:42;;;;;;;17.37;16.57;;;6.30;83.50;;;;;;4980263;28;19917;-83
2022/01/18 10:58:12;;;;;;;17.30;16.50;;;6.30;83.30;;;;;;4986839;28;20372;-81
2022/01/18 11:00:38;;;;;;;17.13;16.13;;;6.30;83.30;;;;;;4991287;28;20038;-81
2022/01/18 11:03:05;;;;;;;16.10;15.40;;;6.30;83.30;;;;;;4990849;28;20026;-80
2022/01/18 11:05:32;;;;;;;16.70;15.83;;;6.30;83.40;;;;;;4993672;28;20026;-81
2022/01/18 11:08:03;;;;;;;16.37;15.60;;;6.30;84.20;;;;;;4995635;28;20041;-81
2022/01/18 11:10:38;;;;;;;16.63;15.83;;;6.30;83.30;;;;;;4983734;28;20039;-81
2022/01/18 11:13:07;;;;;;;16.40;15.60;;;6.40;83.40;;;;;;4989941;28;20027;-80
2022/01/18 11:15:36;;;;;;;16.33;15.53;;;6.40;83.30;;;;;;4993734;28;20030;-80
2022/01/18 11:18:06;;;;;;;17.27;16.27;;;6.40;83.20;;;;;;4990797;28;20489;-82
2022/01/18 11:20:34;;;;;;;16.52;15.73;;;6.50;83.20;;;;;;4994943;28;20034;-81
2022/01/18 11:23:01;;;;;;;16.33;15.43;;;6.50;83.30;;;;;;4981981;28;20058;-81
2022/01/18 11:25:29;;;;;;;16.90;16.00;;;6.50;83.20;;;;;;4983262;28;20061;-83
2022/01/18 11:27:57;;;;;;;16.60;15.80;;;6.50;83.10;;;;;;4983645;28;20046;-82
2022/01/18 11:30:24;;;;;;;16.37;15.63;;;6.50;83.10;;;;;;4989971;28;20065;-81
2022/01/18 11:32:52;;;;;;;16.43;15.63;;;6.60;83.10;;;;;;4987152;28;20034;-81
2022/01/18 11:35:25;;;;;;;16.33;15.53;;;6.50;83.10;;;;;;4995429;28;20034;-82
2022/01/18 11:37:54;;;;;;;16.80;16.00;;;6.50;83.10;;;;;;4977254;28;20391;-85
2022/01/18 11:40:21;;;;;;;16.70;15.90;;;6.50;83.10;;;;;;4994361;28;20034;-82
2022/01/18 11:42:54;;;;;;;17.27;16.40;;;6.60;83.20;;;;;;4977911;28;20049;-82
2022/01/18 11:45:33;;;;;;;16.87;16.07;;;6.60;83.10;;;;;;4977234;28;20374;-82
2022/01/18 11:48:18;;;;;;;16.87;16.07;;;6.60;83.00;;;;;;4994660;28;20426;-82
2022/01/18 11:50:49;;;;;;;16.73;15.93;;;6.60;83.10;;;;;;4977766;28;20042;-83
2022/01/18 11:53:42;;;;;;;17.50;16.70;;;6.60;82.90;;;;;;4979121;28;20046;-83
2022/01/18 11:56:14;;;;;;;17.87;16.57;;;6.60;82.90;;;;;;4994073;28;20054;-84
2022/01/18 11:58:42;;;;;;;16.67;15.87;;;6.60;82.80;;;;;;4973528;28;20023;-84
2022/01/18 12:01:09;;;;;;;20.97;16.30;;;6.60;82.90;;;;;;4985037;28;20034;-84
2022/01/18 12:03:43;;;;;;;18.60;16.87;;;6.60;82.90;;;;;;4981250;28;20074;-84
2022/01/18 12:06:09;;;;;;;17.13;16.33;;;6.70;83.00;;;;;;4982569;28;20031;-84
2022/01/18 12:08:43;;;;;;;16.20;15.50;;;6.70;83.00;;;;;;4992115;28;20046;-83
2022/01/18 12:11:20;;;;;;;17.70;16.70;;;6.70;82.90;;;;;;5004894;28;20050;-84
2022/01/18 12:13:47;;;;;;;16.30;15.50;;;6.70;82.90;;;;;;4981288;28;20031;-83
2022/01/18 12:16:18;;;;;;;17.50;16.67;;;6.70;82.90;;;;;;5004932;28;20392;-83
2022/01/18 12:18:57;;;;;;;;;;;6.80;82.80;;;;;;4989822;28;20043;-83
2022/01/18 12:21:26;;;;;;;16.67;15.87;;;6.80;82.70;;;;;;4990166;28;19910;-83
2022/01/18 12:23:53;;;;;;;16.27;15.50;;;6.80;82.60;;;;;;4979685;28;20047;-82
2022/01/18 12:26:38;;;;;;;17.00;16.20;;;6.80;82.60;;;;;;4992906;28;20034;-82
2022/01/18 12:29:20;;;;;;;18.80;17.70;;;6.80;82.60;;;;;;4979904;28;20031;-82
2022/01/18 12:34:30;;;;;;;19.77;18.57;;;6.80;82.70;;;;;;4989996;28;20056;-83
2022/01/18 12:37:27;;;;;;;17.33;16.33;;;6.80;82.60;;;;;;4989425;28;20067;-82
2022/01/18 12:39:54;;;;;;;16.83;16.03;;;6.80;82.60;;;;;;4982788;28;20031;-83
2022/01/18 12:45:11;;;;;;;17.95;17.05;;;6.90;82.80;;;;;;4981225;28;20041;-83
2022/01/18 12:47:48;;;;;;;18.13;17.10;;;6.90;82.70;;;;;;4993665;28;20042;-84
2022/01/18 12:50:16;;;;;;;17.40;16.53;;;6.90;82.60;;;;;;4975160;28;20476;-83
2022/01/18 12:52:54;;;;;;;18.07;16.80;;;7.00;82.60;;;;;;4997123;28;20025;-83
2022/01/18 12:55:30;;;;;;;16.13;15.43;;;7.10;82.60;;;;;;4979635;28;20047;-83
2022/01/18 12:58:06;;;;;;;17.00;16.20;;;7.10;82.60;;;;;;4983757;28;20364;-82
2022/01/18 13:00:46;;;;;;;18.23;17.13;;;7.10;82.40;;;;;;4975157;28;20034;-82
2022/01/18 13:03:23;;;;;;;17.97;16.90;;;7.10;82.30;;;;;;4988997;28;20054;-83
2022/01/18 13:05:51;;;;;;;17.03;16.13;;;7.10;82.30;;;;;;4984747;28;20039;-82
2022/01/18 13:08:18;;;;;;;17.13;16.33;;;7.10;82.40;;;;;;4980693;28;20034;-83
2022/01/18 13:10:46;;;;;;;17.53;16.73;;;7.20;82.40;;;;;;4987601;28;20050;-82
2022/01/18 13:13:14;;;;;;;17.40;16.57;;;7.20;82.50;;;;;;4987750;28;20025;-83
2022/01/18 13:15:50;;;;;;;18.07;17.17;;;7.20;82.40;;;;;;4985842;28;20031;-83
2022/01/18 13:23:55;;;;;;;16.60;15.80;;;7.30;82.40;;;;;;4977511;28;20099;-83
2022/01/18 13:26:33;;;;;;;16.60;15.80;;;7.30;82.30;;;;;;4975876;28;20046;-84
2022/01/18 13:29:21;;;;;;;17.80;17.00;;;7.30;82.30;;;;;;4979507;28;20074;-84
2022/01/18 13:32:09;;;;;;;18.80;17.90;;;7.30;82.20;;;;;;4988758;28;20035;-84
2022/01/18 13:34:39;;;;;;;18.10;17.30;;;7.30;82.20;;;;;;4986477;28;20056;-84
2022/01/18 13:37:11;;;;;;;17.48;16.67;;;7.30;82.20;;;;;;4982099;28;20479;-83
2022/01/18 13:39:48;;;;;;;19.20;18.30;;;7.30;82.20;;;;;;4978741;28;20034;-84
2022/01/18 13:42:16;;;;;;;18.10;17.30;;;7.30;82.10;;;;;;4987034;28;20031;-84
2022/01/18 13:45:13;;;;;;;17.53;16.73;;;7.30;82.10;;;;;;4976251;28;20399;-84
2022/01/18 13:47:46;;;;;;;17.77;16.97;;;7.30;82.10;;;;;;4975883;28;20038;-84
2022/01/18 13:50:31;;;;;;;17.90;17.10;;;7.30;82.00;;;;;;4986602;28;20049;-83
2022/01/18 13:53:02;;;;;;;19.53;18.50;;;7.20;81.90;;;;;;4987046;28;20039;-83
2022/01/18 13:55:28;;;;;;;19.77;18.83;;;7.20;81.90;;;;;;4985476;28;20053;-83
2022/01/18 13:57:57;;;;;;;17.60;16.80;;;7.20;82.10;;;;;;4986891;28;20400;-83
2022/01/18 14:00:25;;;;;;;18.00;17.20;;;7.20;82.00;;;;;;4980757;28;20038;-83
2022/01/18 14:02:51;;;;;;;17.63;16.83;;;7.20;82.00;;;;;;4975835;28;20030;-83
2022/01/18 14:05:20;;;;;;;18.53;17.63;;;7.20;82.00;;;;;;4982819;28;20439;-83
2022/01/18 14:07:59;;;;;;;17.50;16.70;;;7.20;81.90;;;;;;4984910;28;20030;-83
2022/01/18 14:10:25;;;;;;;17.87;17.03;;;7.20;82.00;;;;;;4984634;28;20049;-83
2022/01/18 14:12:51;;;;;;;17.50;16.70;;;7.30;82.00;;;;;;4986969;28;20391;-83
2022/01/18 14:15:36;;;;;;;17.83;17.00;;;7.30;81.90;;;;;;4976042;28;20030;-83
2022/01/18 14:18:03;;;;;;;17.90;17.10;;;7.30;81.90;;;;;;4976151;28;20327;-83
2022/01/18 14:20:31;;;;;;;19.43;18.43;;;7.40;81.80;;;;;;4977883;28;20042;-82
2022/01/18 14:22:57;;;;;;;17.87;17.07;;;7.40;81.80;;;;;;4987652;28;20038;-83
2022/01/18 14:25:27;;;;;;;17.83;16.93;;;7.40;81.80;;;;;;4978487;28;20038;-83
2022/01/18 14:27:53;;;;;;;18.52;17.42;;;7.40;81.80;;;;;;4978750;28;20368;-83
2022/01/18 14:30:23;;;;;;;18.50;17.60;;;7.40;81.80;;;;;;4975565;28;20399;-83